createdAt,value
2022-10-13T00:01:17.977Z,13.10
2022-10-13T00:03:48.020Z,11.70
2022-10-13T00:06:21.492Z,11.10
2022-10-13T00:08:48.336Z,11.70
2022-10-13T00:11:20.281Z,11.30
2022-10-13T00:13:47.261Z,11.10
2022-10-13T00:16:15.342Z,11.00
2022-10-13T00:18:42.340Z,11.00
2022-10-13T00:21:10.325Z,11.00
2022-10-13T00:23:37.545Z,13.00
2022-10-13T00:26:05.524Z,13.10
2022-10-13T00:28:32.467Z,10.90
2022-10-13T00:30:59.343Z,10.90
2022-10-13T00:33:26.180Z,10.80
2022-10-13T00:35:53.030Z,10.80
2022-10-13T00:38:20.978Z,10.70
2022-10-13T00:40:57.830Z,10.70
2022-10-13T00:44:10.041Z,13.10
2022-10-13T00:46:39.685Z,10.70
2022-10-13T00:49:11.573Z,10.70
2022-10-13T00:51:40.674Z,10.70
2022-10-13T00:54:07.755Z,10.60
2022-10-13T00:56:34.668Z,10.60
2022-10-13T00:59:01.597Z,10.60
2022-10-13T01:01:28.509Z,12.70
2022-10-13T01:03:55.337Z,10.60
2022-10-13T01:06:23.866Z,10.60
2022-10-13T01:08:51.101Z,13.00
2022-10-13T01:11:20.700Z,10.60
2022-10-13T01:14:01.647Z,10.60
2022-10-13T01:16:32.156Z,10.60
2022-10-13T01:19:25.710Z,10.70
2022-10-13T01:22:01.516Z,10.50
2022-10-13T01:25:24.737Z,10.50
2022-10-13T01:28:25.578Z,10.50
2022-10-13T01:30:55.500Z,10.50
2022-10-13T01:33:58.818Z,12.70
2022-10-13T01:36:42.559Z,10.50
2022-10-13T01:39:24.497Z,11.70
2022-10-13T01:41:53.544Z,10.40
2022-10-13T01:44:27.364Z,10.40
2022-10-13T01:46:54.199Z,10.40
2022-10-13T01:49:24.527Z,10.30
2022-10-13T01:51:51.330Z,10.30
2022-10-13T01:54:18.189Z,12.50
2022-10-13T01:56:53.189Z,10.30
2022-10-13T01:59:20.131Z,12.70
2022-10-13T02:02:04.882Z,10.60
2022-10-13T02:04:49.966Z,10.30
2022-10-13T02:07:28.362Z,10.30
2022-10-13T02:09:58.394Z,10.40
2022-10-13T02:12:39.616Z,10.30
2022-10-13T02:15:08.083Z,10.20
2022-10-13T02:17:34.897Z,10.30
2022-10-13T02:20:01.740Z,10.50
2022-10-13T02:22:31.154Z,10.40
2022-10-13T02:24:59.315Z,10.50
2022-10-13T02:27:27.471Z,11.00
2022-10-13T02:29:56.130Z,10.20
2022-10-13T02:32:27.206Z,10.20
2022-10-13T02:34:54.078Z,10.10
2022-10-13T02:37:20.925Z,10.10
2022-10-13T02:39:47.787Z,12.40
2022-10-13T02:42:16.884Z,10.10
2022-10-13T02:44:43.823Z,12.10
2022-10-13T02:47:10.697Z,10.10
2022-10-13T02:49:37.505Z,10.30
2022-10-13T02:52:04.327Z,10.40
2022-10-13T02:54:31.179Z,10.30
2022-10-13T02:56:57.997Z,10.50
2022-10-13T02:59:25.116Z,10.20
2022-10-13T03:01:51.931Z,10.20
2022-10-13T03:04:18.767Z,10.20
2022-10-13T03:06:45.600Z,10.20
2022-10-13T03:09:13.828Z,11.50
2022-10-13T03:11:49.941Z,11.80
2022-10-13T03:14:16.860Z,10.10
2022-10-13T03:16:43.675Z,10.10
2022-10-13T03:19:10.994Z,10.10
2022-10-13T03:21:38.680Z,10.10
2022-10-13T03:24:05.884Z,10.20
2022-10-13T03:26:33.287Z,10.10
2022-10-13T03:29:00.111Z,10.10
2022-10-13T03:31:27.036Z,8.00
2022-10-13T03:34:01.939Z,10.10
2022-10-13T03:36:28.731Z,11.50
2022-10-13T03:38:55.574Z,12.60
2022-10-13T03:41:22.597Z,11.90
2022-10-13T03:43:52.100Z,10.50
2022-10-13T03:46:19.211Z,12.10
2022-10-13T03:48:47.299Z,10.10
2022-10-13T03:51:16.761Z,11.00
2022-10-13T03:53:47.017Z,10.10
2022-10-13T03:56:16.094Z,10.20
2022-10-13T03:58:54.084Z,11.50
2022-10-13T04:01:25.566Z,12.30
2022-10-13T04:03:52.968Z,10.30
2022-10-13T04:06:19.906Z,10.20
2022-10-13T04:08:46.808Z,10.20
2022-10-13T04:11:14.366Z,12.80
2022-10-13T04:13:42.621Z,10.70
2022-10-13T04:16:20.495Z,11.30
2022-10-13T04:18:56.131Z,10.20
2022-10-13T04:21:23.121Z,10.20
2022-10-13T04:23:50.121Z,12.40
2022-10-13T04:26:18.543Z,10.30
2022-10-13T04:28:47.598Z,10.90
2022-10-13T04:31:14.747Z,12.10
2022-10-13T04:33:41.697Z,10.30
2022-10-13T04:36:10.003Z,11.20
2022-10-13T04:38:36.860Z,10.30
2022-10-13T04:41:04.674Z,12.80
2022-10-13T04:43:31.895Z,10.30
2022-10-13T04:46:03.262Z,10.80
2022-10-13T04:48:30.161Z,12.80
2022-10-13T04:51:10.587Z,10.60
2022-10-13T04:53:37.557Z,10.30
2022-10-13T04:56:09.641Z,10.30
2022-10-13T04:58:37.014Z,10.70
2022-10-13T05:01:04.798Z,11.60
2022-10-13T05:03:31.904Z,10.30
2022-10-13T05:05:58.926Z,10.50
2022-10-13T05:08:25.856Z,10.30
2022-10-13T05:10:57.129Z,10.30
2022-10-13T05:13:25.102Z,10.30
2022-10-13T05:15:52.009Z,12.50
2022-10-13T05:18:21.650Z,10.30
2022-10-13T05:20:48.664Z,10.40
2022-10-13T05:23:15.647Z,11.50
2022-10-13T05:25:42.550Z,10.40
2022-10-13T05:28:12.814Z,10.40
2022-10-13T05:30:39.678Z,11.00
2022-10-13T05:33:06.449Z,12.00
2022-10-13T05:35:33.289Z,11.80
2022-10-13T05:38:00.100Z,11.00
2022-10-13T05:40:28.474Z,12.30
2022-10-13T05:43:00.495Z,10.90
2022-10-13T05:45:28.042Z,12.00
2022-10-13T05:47:54.907Z,11.30
2022-10-13T05:50:21.773Z,12.60
2022-10-13T05:52:48.573Z,12.10
2022-10-13T05:55:15.982Z,12.20
2022-10-13T05:57:48.190Z,13.00
2022-10-13T06:00:16.219Z,11.10
2022-10-13T06:02:56.077Z,11.10
2022-10-13T06:05:24.118Z,11.20
2022-10-13T06:07:52.760Z,11.40
2022-10-13T06:10:19.706Z,12.00
2022-10-13T06:12:47.023Z,12.30
2022-10-13T06:15:13.936Z,11.10
2022-10-13T06:17:40.846Z,11.10
2022-10-13T06:20:08.517Z,11.10
2022-10-13T06:22:35.741Z,11.10
2022-10-13T06:25:03.376Z,11.40
2022-10-13T06:27:30.771Z,11.20
2022-10-13T06:29:59.355Z,12.80
2022-10-13T06:32:26.222Z,11.20
2022-10-13T06:34:53.013Z,11.60
2022-10-13T06:37:24.702Z,13.30
2022-10-13T06:39:53.915Z,11.50
2022-10-13T06:42:21.217Z,13.40
2022-10-13T06:45:00.873Z,11.50
2022-10-13T06:47:27.718Z,11.70
2022-10-13T06:49:54.579Z,12.30
2022-10-13T06:52:22.158Z,11.60
2022-10-13T06:54:49.193Z,13.80
2022-10-13T06:57:16.079Z,13.90
2022-10-13T06:59:44.328Z,13.70
2022-10-13T07:02:11.388Z,12.10
2022-10-13T07:04:38.224Z,13.20
2022-10-13T07:07:05.053Z,11.60
2022-10-13T07:09:32.076Z,12.80
2022-10-13T07:11:59.487Z,11.70
2022-10-13T07:14:26.392Z,11.70
2022-10-13T07:16:53.361Z,11.70
2022-10-13T07:19:21.417Z,11.80
2022-10-13T07:21:48.221Z,13.60
2022-10-13T07:24:15.061Z,11.80
2022-10-13T07:26:41.916Z,11.80
2022-10-13T07:29:08.809Z,13.60
2022-10-13T07:31:35.655Z,11.90
2022-10-13T07:34:04.720Z,11.90
2022-10-13T07:36:32.668Z,12.00
2022-10-13T07:39:00.340Z,12.60
2022-10-13T07:41:27.218Z,12.70
2022-10-13T07:43:58.684Z,12.20
2022-10-13T07:46:25.767Z,13.10
2022-10-13T07:48:53.863Z,12.60
2022-10-13T07:51:21.082Z,12.70
2022-10-13T07:53:50.962Z,12.80
2022-10-13T07:56:17.841Z,12.90
2022-10-13T07:58:46.497Z,12.90
2022-10-13T08:01:13.513Z,12.90
2022-10-13T08:03:42.923Z,13.00
2022-10-13T08:06:16.912Z,13.00
2022-10-13T08:08:43.838Z,13.10
2022-10-13T08:11:16.364Z,13.20
2022-10-13T08:13:49.071Z,13.30
2022-10-13T08:16:20.565Z,13.40
2022-10-13T08:18:47.984Z,13.50
2022-10-13T08:21:45.949Z,13.60
2022-10-13T08:24:05.730Z,13.70
2022-10-13T08:26:32.548Z,13.80
2022-10-13T08:31:46.408Z,13.90
2022-10-13T08:34:13.478Z,13.90
2022-10-13T08:36:40.568Z,13.90
2022-10-13T08:39:07.552Z,13.90
2022-10-13T08:41:39.265Z,13.80
2022-10-13T08:47:51.102Z,13.90
2022-10-13T08:50:22.100Z,14.00
2022-10-13T08:52:59.869Z,14.00
2022-10-13T08:55:45.131Z,14.10
2022-10-13T08:58:29.251Z,14.10
2022-10-13T09:01:10.908Z,14.20
2022-10-13T09:04:02.418Z,14.30
2022-10-13T09:06:32.678Z,14.40
2022-10-13T09:09:05.192Z,14.60
2022-10-13T09:11:34.060Z,14.70
2022-10-13T09:14:03.711Z,14.90
2022-10-13T09:16:41.853Z,15.10
2022-10-13T09:19:25.142Z,15.20
2022-10-13T09:21:56.879Z,15.30
2022-10-13T09:24:24.794Z,15.50
2022-10-13T09:27:11.763Z,15.50
2022-10-13T09:29:39.798Z,15.60
2022-10-13T09:32:14.430Z,15.60
2022-10-13T09:34:41.277Z,15.60
2022-10-13T09:37:21.233Z,15.60
2022-10-13T09:40:09.379Z,15.70
2022-10-13T09:42:36.260Z,15.70
2022-10-13T09:45:18.103Z,15.80
2022-10-13T09:48:04.654Z,15.80
2022-10-13T09:50:32.019Z,15.80
2022-10-13T09:53:20.939Z,15.90
2022-10-13T09:55:49.713Z,15.90
2022-10-13T09:58:28.202Z,16.00
2022-10-13T10:00:55.057Z,16.10
2022-10-13T10:03:27.976Z,16.10
2022-10-13T10:05:56.506Z,16.20
2022-10-13T10:08:33.804Z,16.30
2022-10-13T10:11:10.548Z,16.30
2022-10-13T10:13:37.392Z,16.40
2022-10-13T10:16:31.435Z,16.50
2022-10-13T10:19:42.139Z,16.60
2022-10-13T10:22:14.320Z,16.60
2022-10-13T10:25:07.924Z,16.70
2022-10-13T10:27:46.438Z,16.70
2022-10-13T10:30:17.990Z,16.70
2022-10-13T10:32:51.351Z,16.80
2022-10-13T10:35:48.703Z,16.80
2022-10-13T10:38:40.848Z,16.80
2022-10-13T10:41:20.794Z,16.80
2022-10-13T10:44:04.262Z,16.90
2022-10-13T10:46:34.756Z,16.90
2022-10-13T10:49:12.167Z,16.90
2022-10-13T10:51:39.396Z,17.00
2022-10-13T10:54:49.040Z,17.00
2022-10-13T10:57:31.562Z,17.00
2022-10-13T11:00:06.607Z,17.00
2022-10-13T11:02:52.436Z,17.00
2022-10-13T11:05:19.404Z,17.00
2022-10-13T11:07:46.577Z,17.00
2022-10-13T11:10:13.423Z,17.00
2022-10-13T11:12:52.513Z,17.00
2022-10-13T11:15:42.662Z,17.00
2022-10-13T12:31:43.009Z,17.60
2022-10-13T12:34:28.121Z,17.60
2022-10-13T12:37:17.984Z,17.60
2022-10-13T13:28:19.247Z,17.20
2022-10-13T13:30:46.757Z,17.20
2022-10-13T13:33:13.693Z,17.20
2022-10-13T13:35:40.698Z,17.10
2022-10-13T13:38:07.694Z,17.00
2022-10-13T13:40:34.679Z,17.00
2022-10-13T13:43:01.896Z,18.50
2022-10-13T13:45:31.195Z,17.00
2022-10-13T13:48:00.790Z,17.00
2022-10-13T13:50:33.112Z,17.00
2022-10-13T13:53:00.271Z,16.90
2022-10-13T13:55:27.530Z,16.90
2022-10-13T13:57:54.468Z,16.80
2022-10-13T14:00:21.998Z,16.70
2022-10-13T14:02:55.557Z,16.70
2022-10-13T14:05:22.592Z,16.60
2022-10-13T14:07:49.620Z,16.60
2022-10-13T14:10:16.726Z,16.50
2022-10-13T14:12:43.749Z,16.40
2022-10-13T14:15:11.105Z,16.40
2022-10-13T14:17:38.068Z,16.30
2022-10-13T14:20:05.475Z,16.30
2022-10-13T14:22:40.197Z,16.30
2022-10-13T14:25:07.667Z,16.30
2022-10-13T14:27:35.147Z,16.20
2022-10-13T14:30:02.710Z,16.20
2022-10-13T14:32:29.699Z,16.10
2022-10-13T14:34:56.638Z,16.10
2022-10-13T14:37:26.721Z,16.10
2022-10-13T14:39:55.979Z,16.00
2022-10-13T14:42:23.149Z,16.00
2022-10-13T14:44:50.182Z,16.00
2022-10-13T14:47:17.230Z,16.00
2022-10-13T14:49:44.171Z,16.00
2022-10-13T14:52:11.376Z,15.90
2022-10-13T14:54:42.471Z,16.00
2022-10-13T14:57:15.795Z,16.00
2022-10-13T14:59:43.315Z,16.00
2022-10-13T15:02:11.394Z,16.00
2022-10-13T15:04:38.429Z,16.00
2022-10-13T15:07:05.666Z,16.10
2022-10-13T15:09:45.433Z,16.00
2022-10-13T15:12:21.188Z,16.00
2022-10-13T15:14:50.763Z,16.00
2022-10-13T15:17:17.917Z,16.00
2022-10-13T15:19:44.869Z,15.90
2022-10-13T15:22:12.409Z,16.00
2022-10-13T15:24:39.356Z,15.90
2022-10-13T15:27:06.287Z,15.90
2022-10-13T15:29:34.114Z,15.80
2022-10-13T15:32:11.741Z,15.80
2022-10-13T15:34:39.808Z,15.80
2022-10-13T15:37:07.104Z,15.70
2022-10-13T15:39:34.046Z,15.70
2022-10-13T15:42:01.179Z,15.60
2022-10-13T15:44:45.445Z,15.60
2022-10-13T15:47:18.500Z,15.50
2022-10-13T15:49:45.440Z,16.30
2022-10-13T15:52:12.643Z,15.30
2022-10-13T15:54:40.913Z,15.20
2022-10-13T15:57:08.256Z,15.20
2022-10-13T15:59:35.156Z,15.10
2022-10-13T16:02:02.785Z,15.00
2022-10-13T16:04:33.493Z,15.00
2022-10-13T16:07:03.517Z,14.90
2022-10-13T16:09:31.164Z,14.80
2022-10-13T16:11:58.084Z,14.80
2022-10-13T16:14:25.279Z,14.70
2022-10-13T16:16:52.452Z,14.60
2022-10-13T16:19:19.505Z,14.60
2022-10-13T16:21:47.073Z,14.60
2022-10-13T16:24:14.985Z,14.50
2022-10-13T16:26:41.876Z,14.50
2022-10-13T16:29:08.853Z,14.50
2022-10-13T16:31:35.838Z,14.40
2022-10-13T16:34:04.212Z,14.40
2022-10-13T16:36:31.315Z,14.40
2022-10-13T16:38:58.615Z,14.30
2022-10-13T16:41:25.902Z,14.30
2022-10-13T16:43:56.599Z,14.30
2022-10-13T16:46:23.512Z,14.20
2022-10-13T16:48:50.452Z,14.20
2022-10-13T16:51:26.841Z,14.10
2022-10-13T16:54:03.591Z,14.10
2022-10-13T16:56:31.360Z,14.00
2022-10-13T16:59:02.834Z,14.00
2022-10-13T17:01:30.188Z,13.90
2022-10-13T17:03:57.167Z,13.90
2022-10-13T17:06:25.837Z,13.90
2022-10-13T17:08:57.612Z,12.20
2022-10-13T17:11:26.430Z,13.80
2022-10-13T17:13:53.493Z,13.70
2022-10-13T17:16:20.574Z,13.70
2022-10-13T17:18:47.560Z,13.60
2022-10-13T17:21:15.605Z,13.60
2022-10-13T17:23:47.337Z,13.50
2022-10-13T17:26:15.787Z,13.50
2022-10-13T17:28:43.045Z,13.50
2022-10-13T17:31:13.882Z,13.40
2022-10-13T17:33:41.510Z,13.40
2022-10-13T17:36:13.431Z,13.40
2022-10-13T17:38:40.488Z,13.40
2022-10-13T17:41:07.859Z,13.40
2022-10-13T17:43:37.068Z,13.40
2022-10-13T17:46:34.448Z,13.30
2022-10-13T17:48:56.288Z,13.30
2022-10-13T17:51:23.518Z,13.30
2022-10-13T17:53:51.435Z,13.30
2022-10-13T17:56:21.453Z,13.30
2022-10-13T17:58:49.671Z,13.30
2022-10-13T18:01:44.183Z,13.30
2022-10-13T18:04:15.216Z,13.30
2022-10-13T18:06:45.336Z,13.30
2022-10-13T18:09:19.668Z,13.30
2022-10-13T18:11:50.572Z,13.30
2022-10-13T18:14:22.794Z,13.30
2022-10-13T18:16:50.742Z,13.30
2022-10-13T18:19:17.969Z,13.30
2022-10-13T18:21:45.104Z,13.20
2022-10-13T18:24:14.992Z,13.80
2022-10-13T18:26:42.046Z,13.20
2022-10-13T18:29:09.179Z,13.20
2022-10-13T18:31:39.403Z,13.20
2022-10-13T18:34:08.675Z,13.20
2022-10-13T18:36:56.178Z,13.20
2022-10-13T18:39:26.721Z,13.20
2022-10-13T18:41:55.685Z,13.20
2022-10-13T18:44:31.836Z,13.20
2022-10-13T18:46:58.804Z,13.20
2022-10-13T18:49:35.922Z,13.20
2022-10-13T18:52:04.597Z,13.20
2022-10-13T18:54:31.666Z,13.10
2022-10-13T18:56:58.679Z,13.10
2022-10-13T18:59:25.574Z,13.10
2022-10-13T19:01:52.564Z,13.10
2022-10-13T19:04:21.491Z,13.10
2022-10-13T19:06:51.156Z,13.10
2022-10-13T19:09:18.332Z,13.00
2022-10-13T19:11:45.294Z,11.40
2022-10-13T19:14:16.162Z,13.00
2022-10-13T19:16:43.729Z,13.00
2022-10-13T19:19:13.971Z,13.00
2022-10-13T19:21:41.243Z,13.00
2022-10-13T19:24:15.010Z,13.00
2022-10-13T19:26:41.989Z,13.00
2022-10-13T19:29:10.677Z,13.00
2022-10-13T19:31:38.472Z,13.70
2022-10-13T19:34:10.359Z,12.90
2022-10-13T19:36:39.677Z,13.00
2022-10-13T19:39:18.007Z,12.90
2022-10-13T19:41:45.600Z,12.90
2022-10-13T19:44:13.091Z,12.90
2022-10-13T19:46:40.984Z,12.90
2022-10-13T19:49:08.246Z,12.90
2022-10-13T19:51:37.493Z,12.90
2022-10-13T19:54:05.053Z,12.90
2022-10-13T19:56:35.447Z,12.90
2022-10-13T19:59:04.817Z,12.90
2022-10-13T20:01:32.211Z,12.90
2022-10-13T20:04:00.094Z,12.90
2022-10-13T20:06:29.936Z,12.90
2022-10-13T20:08:58.738Z,12.90
2022-10-13T20:11:25.919Z,12.90
2022-10-13T20:13:53.441Z,12.90
2022-10-13T20:16:22.761Z,12.90
2022-10-13T20:18:57.637Z,12.90
2022-10-13T20:21:25.413Z,12.90
2022-10-13T20:23:52.553Z,11.90
2022-10-13T20:26:20.476Z,12.90
2022-10-13T20:28:48.168Z,12.90
2022-10-13T20:31:16.181Z,12.90
2022-10-13T20:33:43.531Z,12.90
2022-10-13T20:36:15.720Z,13.00
2022-10-13T20:38:45.232Z,12.90
2022-10-13T20:41:16.727Z,13.00
2022-10-13T20:43:46.718Z,13.00
2022-10-13T20:46:13.803Z,13.00
2022-10-13T20:49:08.885Z,13.00
2022-10-13T20:51:28.327Z,13.10
2022-10-13T20:53:55.291Z,13.10
2022-10-13T20:56:25.893Z,13.10
2022-10-13T20:58:53.268Z,13.10
2022-10-13T21:01:21.363Z,13.10
2022-10-13T21:03:54.752Z,13.10
2022-10-13T21:06:21.872Z,13.10
2022-10-13T21:08:49.255Z,12.20
2022-10-13T21:11:17.472Z,13.10
2022-10-13T21:13:44.920Z,13.10
2022-10-13T21:16:23.087Z,13.10
2022-10-13T21:18:51.135Z,13.10
2022-10-13T21:21:22.594Z,11.80
2022-10-13T21:24:01.705Z,13.10
2022-10-13T21:26:32.221Z,13.10
2022-10-13T21:28:59.388Z,13.20
2022-10-13T21:31:27.528Z,13.10
2022-10-13T21:33:55.169Z,13.10
2022-10-13T21:36:23.919Z,13.70
2022-10-13T21:38:52.390Z,13.20
2022-10-13T21:41:19.542Z,13.10
2022-10-13T21:43:47.249Z,13.20
2022-10-13T21:46:19.455Z,14.90
2022-10-13T21:48:57.261Z,13.20
2022-10-13T21:51:29.734Z,13.20
2022-10-13T21:54:05.135Z,13.20
2022-10-13T21:56:32.399Z,13.10
2022-10-13T21:59:00.008Z,13.10
2022-10-13T22:01:28.051Z,13.10
2022-10-13T22:03:59.341Z,13.10
2022-10-13T22:06:26.533Z,13.10
2022-10-13T22:08:56.222Z,13.10
2022-10-13T22:11:24.618Z,13.10
2022-10-13T22:13:51.635Z,13.00
2022-10-13T22:16:20.474Z,13.00
2022-10-13T22:18:52.152Z,13.00
2022-10-13T22:21:21.106Z,13.00
2022-10-13T22:23:48.213Z,13.00
2022-10-13T22:26:15.856Z,13.00
2022-10-13T22:28:44.518Z,13.00
2022-10-13T22:31:12.748Z,13.00
2022-10-13T22:33:40.669Z,12.90
2022-10-13T22:36:17.719Z,12.90
2022-10-13T22:38:45.322Z,12.90
2022-10-13T22:41:13.253Z,12.90
2022-10-13T22:43:41.747Z,12.80
2022-10-13T22:46:12.568Z,12.80
2022-10-13T22:48:40.848Z,12.80
2022-10-13T22:51:09.555Z,12.80
2022-10-13T22:53:36.549Z,12.80
2022-10-13T22:56:07.687Z,12.80
2022-10-13T22:58:34.755Z,12.80
2022-10-13T23:01:11.927Z,12.80
2022-10-13T23:03:39.206Z,12.70
2022-10-13T23:06:06.796Z,12.70
2022-10-13T23:08:34.078Z,12.70
2022-10-13T23:11:01.032Z,12.70
2022-10-13T23:13:27.984Z,12.70
2022-10-13T23:16:07.884Z,12.70
2022-10-13T23:18:37.905Z,12.70
2022-10-13T23:21:08.770Z,12.70
2022-10-13T23:23:35.862Z,12.70
2022-10-13T23:26:07.291Z,12.60
2022-10-13T23:28:34.689Z,12.60
2022-10-13T23:31:03.258Z,12.60
2022-10-13T23:33:30.455Z,12.60
2022-10-13T23:35:57.992Z,12.60
2022-10-13T23:38:25.265Z,12.60
2022-10-13T23:40:52.258Z,12.60
2022-10-13T23:43:19.597Z,12.60
2022-10-13T23:45:46.494Z,12.60
2022-10-13T23:48:13.767Z,12.60
2022-10-13T23:50:40.669Z,12.60
2022-10-13T23:53:08.030Z,12.60
2022-10-13T23:55:38.471Z,12.60
2022-10-13T23:58:06.008Z,12.60
